createdAt,value
2022-09-22T00:02:11.039Z,2.70
2022-09-22T00:05:13.607Z,2.78
2022-09-22T00:08:16.048Z,2.33
2022-09-22T00:11:20.028Z,2.60
2022-09-22T00:14:24.238Z,2.45
2022-09-22T00:17:26.352Z,2.53
2022-09-22T00:20:28.487Z,2.20
2022-09-22T00:23:31.926Z,2.35
2022-09-22T00:26:35.746Z,2.03
2022-09-22T00:29:37.881Z,3.00
2022-09-22T00:32:40.014Z,2.40
2022-09-22T00:35:42.124Z,2.20
2022-09-22T00:38:44.549Z,2.20
2022-09-22T00:41:48.172Z,2.50
2022-09-22T00:44:50.655Z,2.40
2022-09-22T00:47:53.186Z,2.90
2022-09-22T00:50:56.156Z,2.45
2022-09-22T00:53:59.228Z,2.30
2022-09-22T00:57:09.685Z,2.53
2022-09-22T01:00:12.456Z,2.47
2022-09-22T01:03:16.901Z,2.80
2022-09-22T01:06:21.775Z,3.55
2022-09-22T01:09:24.304Z,2.95
2022-09-22T01:12:27.908Z,2.35
2022-09-22T01:15:30.127Z,2.85
2022-09-22T01:18:49.480Z,2.77
2022-09-22T01:22:00.371Z,2.42
2022-09-22T01:25:21.235Z,2.90
2022-09-22T01:28:23.315Z,2.95
2022-09-22T01:31:38.983Z,3.25
2022-09-22T01:35:16.842Z,4.10
2022-09-22T01:38:25.384Z,3.17
2022-09-22T01:41:46.621Z,4.13
2022-09-22T01:44:54.002Z,3.45
2022-09-22T01:48:09.148Z,3.10
2022-09-22T01:51:17.471Z,3.03
2022-09-22T01:54:22.336Z,3.22
2022-09-22T01:57:33.826Z,2.88
2022-09-22T02:00:38.146Z,2.70
2022-09-22T02:03:46.862Z,2.92
2022-09-22T02:07:03.253Z,3.20
2022-09-22T02:10:07.879Z,3.22
2022-09-22T02:13:09.980Z,3.10
2022-09-22T02:16:14.463Z,3.00
2022-09-22T02:19:18.875Z,3.17
2022-09-22T02:22:21.040Z,3.00
2022-09-22T02:25:26.337Z,3.00
2022-09-22T02:28:29.494Z,3.08
2022-09-22T02:31:34.231Z,2.97
2022-09-22T02:34:36.417Z,3.08
2022-09-22T02:37:54.795Z,3.10
2022-09-22T02:41:03.923Z,2.92
2022-09-22T02:44:13.542Z,2.80
2022-09-22T02:47:32.439Z,3.10
2022-09-22T02:50:35.095Z,2.90
2022-09-22T02:53:37.429Z,3.10
2022-09-22T02:56:39.534Z,3.58
2022-09-22T02:59:41.746Z,3.50
2022-09-22T03:02:43.855Z,3.45
2022-09-22T03:05:45.970Z,2.72
2022-09-22T03:08:48.088Z,2.80
2022-09-22T03:11:50.283Z,3.05
2022-09-22T03:14:52.493Z,3.05
2022-09-22T03:17:54.613Z,3.40
2022-09-22T03:20:56.716Z,2.88
2022-09-22T03:23:58.944Z,2.90
2022-09-22T03:27:01.311Z,3.25
2022-09-22T03:30:04.816Z,3.45
2022-09-22T03:33:07.089Z,3.28
2022-09-22T03:36:09.241Z,2.70
2022-09-22T03:39:11.375Z,2.90
2022-09-22T03:42:13.529Z,3.35
2022-09-22T03:45:15.757Z,3.28
2022-09-22T03:48:18.399Z,3.22
2022-09-22T03:51:20.559Z,3.50
2022-09-22T03:54:22.872Z,3.10
2022-09-22T03:57:25.451Z,3.80
2022-09-22T04:00:28.574Z,3.67
2022-09-22T04:03:31.096Z,4.28
2022-09-22T04:06:33.939Z,4.28
2022-09-22T04:09:36.038Z,4.47
2022-09-22T04:12:38.440Z,4.10
2022-09-22T04:15:41.125Z,4.28
2022-09-22T04:18:43.772Z,4.15
2022-09-22T04:21:45.901Z,4.53
2022-09-22T04:24:48.080Z,4.40
2022-09-22T04:27:50.376Z,4.25
2022-09-22T04:30:52.578Z,3.90
2022-09-22T04:33:54.741Z,5.28
2022-09-22T04:36:57.507Z,4.80
2022-09-22T04:40:00.439Z,4.43
2022-09-22T04:43:02.604Z,4.72
2022-09-22T04:46:05.074Z,5.15
2022-09-22T04:49:07.332Z,5.00
2022-09-22T04:52:09.848Z,5.43
2022-09-22T04:55:13.201Z,5.27
2022-09-22T04:58:15.492Z,4.85
2022-09-22T05:01:18.606Z,5.00
2022-09-22T05:04:21.173Z,4.78
2022-09-22T05:07:23.635Z,4.47
2022-09-22T05:10:26.739Z,4.73
2022-09-22T05:13:30.314Z,4.13
2022-09-22T05:16:34.048Z,4.28
2022-09-22T05:19:37.095Z,4.78
2022-09-22T05:22:40.155Z,4.85
2022-09-22T05:25:42.588Z,4.53
2022-09-22T05:28:44.833Z,6.10
2022-09-22T05:31:47.337Z,9.35
2022-09-22T05:34:49.607Z,10.43
2022-09-22T05:37:52.392Z,8.75
2022-09-22T05:40:54.558Z,9.33
2022-09-22T05:43:56.739Z,9.43
2022-09-22T05:46:59.759Z,9.07
2022-09-22T05:50:02.296Z,8.27
2022-09-22T05:53:09.000Z,7.47
2022-09-22T05:56:11.370Z,8.20
2022-09-22T05:59:13.831Z,8.20
2022-09-22T06:02:25.534Z,6.68
2022-09-22T06:05:28.197Z,6.00
2022-09-22T06:08:30.984Z,5.90
2022-09-22T06:11:33.439Z,5.50
2022-09-22T06:14:35.653Z,4.70
2022-09-22T06:17:37.941Z,4.22
2022-09-22T06:20:41.256Z,5.30
2022-09-22T06:23:43.622Z,5.15
2022-09-22T06:26:46.122Z,4.93
2022-09-22T06:29:48.303Z,5.00
2022-09-22T06:32:54.162Z,4.57
2022-09-22T06:35:58.743Z,5.60
2022-09-22T06:39:01.404Z,4.68
2022-09-22T06:42:07.472Z,4.10
2022-09-22T06:45:10.196Z,3.92
2022-09-22T06:48:14.297Z,3.78
2022-09-22T06:51:22.692Z,3.47
2022-09-22T06:54:26.557Z,3.80
2022-09-22T06:57:34.294Z,3.40
2022-09-22T07:00:41.301Z,3.40
2022-09-22T07:03:44.577Z,3.03
2022-09-22T07:06:47.214Z,3.05
2022-09-22T07:09:51.332Z,2.78
2022-09-22T07:12:54.463Z,3.20
2022-09-22T07:16:02.679Z,2.47
2022-09-22T07:19:05.909Z,2.78
2022-09-22T07:22:08.290Z,2.70
2022-09-22T07:25:10.600Z,2.63
2022-09-22T07:28:15.782Z,2.60
2022-09-22T07:31:18.097Z,2.60
2022-09-22T07:34:21.107Z,2.50
2022-09-22T07:37:24.458Z,2.33
2022-09-22T07:40:26.914Z,2.35
2022-09-22T07:43:29.491Z,2.63
2022-09-22T07:46:32.682Z,2.70
2022-09-22T07:49:40.364Z,2.13
2022-09-22T07:52:55.872Z,2.13
2022-09-22T07:56:15.139Z,2.30
2022-09-22T07:59:24.031Z,2.33
2022-09-22T08:02:35.137Z,1.95
2022-09-22T08:05:39.517Z,2.15
2022-09-22T08:08:43.524Z,1.88
2022-09-22T08:11:48.619Z,1.90
2022-09-22T08:14:52.021Z,2.60
2022-09-22T08:18:01.865Z,1.80
2022-09-22T08:21:04.449Z,2.00
2022-09-22T08:24:07.905Z,1.77
2022-09-22T08:27:10.130Z,2.00
2022-09-22T08:30:12.621Z,2.03
2022-09-22T08:33:15.091Z,1.50
2022-09-22T08:36:17.685Z,2.10
2022-09-22T08:39:22.465Z,1.60
2022-09-22T08:42:29.122Z,1.80
2022-09-22T08:45:33.492Z,1.80
2022-09-22T08:48:58.467Z,1.90
2022-09-22T08:52:28.720Z,1.95
2022-09-22T08:55:32.916Z,1.70
2022-09-22T08:59:07.401Z,1.98
2022-09-22T09:02:29.058Z,1.90
2022-09-22T09:05:42.031Z,1.70
2022-09-22T09:09:05.475Z,2.10
2022-09-22T09:12:10.602Z,2.03
2022-09-22T09:15:20.388Z,1.52
2022-09-22T09:18:29.551Z,1.73
2022-09-22T09:21:34.517Z,1.60
2022-09-22T09:28:07.983Z,1.75
2022-09-22T09:31:29.381Z,2.13
2022-09-22T09:34:35.281Z,1.87
2022-09-22T09:37:38.450Z,2.15
2022-09-22T09:40:42.151Z,2.38
2022-09-22T09:43:47.514Z,2.15
2022-09-22T09:46:51.694Z,2.50
2022-09-22T09:50:00.633Z,2.50
2022-09-22T09:53:18.166Z,2.47
2022-09-22T09:56:30.766Z,2.55
2022-09-22T09:59:55.487Z,2.28
2022-09-22T10:03:07.610Z,2.70
2022-09-22T10:06:11.892Z,2.37
2022-09-22T10:09:24.192Z,2.17
2022-09-22T10:12:33.181Z,2.65
2022-09-22T10:15:37.288Z,2.38
2022-09-22T10:18:40.758Z,2.38
2022-09-22T10:21:43.133Z,2.20
2022-09-22T10:24:59.045Z,2.50
2022-09-22T10:28:03.139Z,2.03
2022-09-22T10:31:06.250Z,2.20
2022-09-22T10:34:28.166Z,2.22
2022-09-22T10:37:32.179Z,2.53
2022-09-22T10:40:36.273Z,2.25
2022-09-22T10:43:53.730Z,2.58
2022-09-22T10:47:15.101Z,3.00
2022-09-22T10:50:38.286Z,3.10
2022-09-22T10:53:46.021Z,3.27
2022-09-22T10:56:53.508Z,3.10
2022-09-22T10:59:59.124Z,2.83
2022-09-22T11:03:22.967Z,2.72
2022-09-22T11:07:02.996Z,3.00
2022-09-22T11:10:56.717Z,2.53
2022-09-22T11:14:02.251Z,2.50
2022-09-22T11:17:23.784Z,3.15
2022-09-22T11:20:37.335Z,2.50
2022-09-22T11:24:00.127Z,2.40
2022-09-22T11:27:03.265Z,2.27
2022-09-22T11:30:15.113Z,2.40
2022-09-22T11:33:36.528Z,2.30
2022-09-22T11:36:39.102Z,2.38
2022-09-22T11:40:08.224Z,2.20
2022-09-22T11:43:10.896Z,2.40
2022-09-22T11:46:22.010Z,2.30
2022-09-22T11:49:24.614Z,2.42
2022-09-22T11:52:26.930Z,2.38
2022-09-22T11:55:43.388Z,2.40
2022-09-22T11:58:55.840Z,2.50
2022-09-22T12:02:10.038Z,2.42
2022-09-22T12:05:27.163Z,2.30
2022-09-22T12:08:33.200Z,2.70
2022-09-22T12:11:37.971Z,2.20
2022-09-22T12:14:42.750Z,2.10
2022-09-22T12:17:49.971Z,1.70
2022-09-22T12:21:08.292Z,1.90
2022-09-22T12:24:14.128Z,1.83
2022-09-22T12:27:25.920Z,2.00
2022-09-22T12:30:28.658Z,1.70
2022-09-22T12:33:36.564Z,1.67
2022-09-22T12:36:40.319Z,2.05
2022-09-22T12:39:44.860Z,1.73
2022-09-22T12:42:50.913Z,1.98
2022-09-22T12:45:55.155Z,2.37
2022-09-22T12:48:58.063Z,2.10
2022-09-22T12:52:00.747Z,2.15
2022-09-22T12:55:52.763Z,2.50
2022-09-22T12:58:55.252Z,2.35
2022-09-22T13:02:16.272Z,2.00
2022-09-22T13:05:25.894Z,2.22
2022-09-22T13:08:32.005Z,2.58
2022-09-22T13:11:53.436Z,2.20
2022-09-22T13:15:01.015Z,2.40
2022-09-22T13:18:03.557Z,2.83
2022-09-22T13:21:05.946Z,2.60
2022-09-22T13:24:18.626Z,2.90
2022-09-22T13:27:21.947Z,2.35
2022-09-22T13:30:24.357Z,2.88
2022-09-22T13:33:28.402Z,2.50
2022-09-22T13:36:32.293Z,2.67
2022-09-22T13:39:36.476Z,2.28
2022-09-22T13:42:43.659Z,2.30
2022-09-22T13:45:46.410Z,2.20
2022-09-22T13:48:49.309Z,2.77
2022-09-22T13:51:57.642Z,2.80
2022-09-22T13:55:12.870Z,2.88
2022-09-22T13:58:19.232Z,2.60
2022-09-22T14:01:22.931Z,2.70
2022-09-22T14:04:27.360Z,2.70
2022-09-22T14:07:31.095Z,2.60
2022-09-22T14:10:33.762Z,2.50
2022-09-22T14:13:56.302Z,2.90
2022-09-22T14:17:00.829Z,2.40
2022-09-22T14:20:04.791Z,2.77
2022-09-22T14:23:12.178Z,2.65
2022-09-22T14:26:20.236Z,2.55
2022-09-22T14:29:27.245Z,2.80
2022-09-22T14:32:44.522Z,3.10
2022-09-22T14:35:47.580Z,2.70
2022-09-22T14:39:07.629Z,2.33
2022-09-22T14:42:20.562Z,2.63
2022-09-22T14:45:23.026Z,2.33
2022-09-22T14:48:28.390Z,2.30
2022-09-22T14:51:36.928Z,2.20
2022-09-22T14:54:39.762Z,2.30
2022-09-22T14:57:49.290Z,2.35
2022-09-22T15:01:20.845Z,2.22
2022-09-22T15:04:23.336Z,2.40
2022-09-22T15:07:29.124Z,1.93
2022-09-22T15:10:32.331Z,2.33
2022-09-22T15:13:39.487Z,2.38
2022-09-22T15:16:43.350Z,2.20
2022-09-22T15:19:49.130Z,2.10
2022-09-22T15:22:54.086Z,2.20
2022-09-22T15:25:56.420Z,2.20
2022-09-22T15:29:02.689Z,2.00
2022-09-22T15:32:07.257Z,2.15
2022-09-22T15:35:09.785Z,2.17
2022-09-22T15:38:17.348Z,2.17
2022-09-22T15:41:19.592Z,2.70
2022-09-22T15:44:22.397Z,2.60
2022-09-22T15:47:25.915Z,2.78
2022-09-22T15:50:29.523Z,3.00
2022-09-22T15:53:32.608Z,2.77
2022-09-22T15:56:34.883Z,2.50
2022-09-22T15:59:38.534Z,2.50
2022-09-22T16:02:40.901Z,2.05
2022-09-22T16:05:43.478Z,2.40
2022-09-22T16:08:51.538Z,3.00
2022-09-22T16:11:54.988Z,3.10
2022-09-22T16:14:57.215Z,3.30
2022-09-22T16:17:59.460Z,3.10
2022-09-22T16:21:20.399Z,2.95
2022-09-22T16:24:22.928Z,2.27
2022-09-22T16:27:25.160Z,2.40
2022-09-22T16:30:28.052Z,2.53
2022-09-22T16:33:30.634Z,2.22
2022-09-22T16:36:33.876Z,2.70
2022-09-22T16:39:36.887Z,3.23
2022-09-22T16:42:39.755Z,3.50
2022-09-22T16:46:00.936Z,3.40
2022-09-22T16:49:11.987Z,3.35
2022-09-22T16:52:14.485Z,3.45
2022-09-22T16:55:16.685Z,4.20
2022-09-22T16:58:18.847Z,3.80
2022-09-22T17:01:21.683Z,4.18
2022-09-22T17:04:24.018Z,3.97
2022-09-22T17:07:26.307Z,4.15
2022-09-22T17:10:29.136Z,4.07
2022-09-22T17:13:32.883Z,4.13
2022-09-22T17:16:36.141Z,4.63
2022-09-22T17:19:38.330Z,4.65
2022-09-22T17:22:41.130Z,5.28
2022-09-22T17:25:46.759Z,4.97
2022-09-22T17:28:50.789Z,5.15
2022-09-22T17:31:56.491Z,6.60
2022-09-22T17:34:59.960Z,7.15
2022-09-22T17:38:02.404Z,7.22
2022-09-22T17:41:10.027Z,6.90
2022-09-22T17:44:12.892Z,5.97
2022-09-22T17:47:33.841Z,5.38
2022-09-22T17:50:54.412Z,5.28
2022-09-22T17:54:15.467Z,5.95
2022-09-22T17:57:17.671Z,5.60
2022-09-22T18:00:21.407Z,5.63
2022-09-22T18:03:23.674Z,5.38
2022-09-22T18:06:25.878Z,5.93
2022-09-22T18:09:31.151Z,6.75
2022-09-22T18:12:34.231Z,6.50
2022-09-22T18:15:36.626Z,6.78
2022-09-22T18:18:40.951Z,6.40
2022-09-22T18:21:45.641Z,6.55
2022-09-22T18:24:49.620Z,5.97
2022-09-22T18:27:53.259Z,5.60
2022-09-22T18:30:55.471Z,5.07
2022-09-22T18:33:58.235Z,4.93
2022-09-22T18:37:01.179Z,4.85
2022-09-22T18:40:03.691Z,4.70
2022-09-22T18:43:10.157Z,4.80
2022-09-22T18:46:19.949Z,4.57
2022-09-22T18:49:22.745Z,4.80
2022-09-22T18:52:25.617Z,4.50
2022-09-22T18:55:27.786Z,4.40
2022-09-22T18:58:29.929Z,5.20
2022-09-22T19:01:35.726Z,5.72
2022-09-22T19:04:39.142Z,5.65
2022-09-22T19:07:44.138Z,6.30
2022-09-22T19:10:47.832Z,5.28
2022-09-22T19:13:53.712Z,6.13
2022-09-22T19:16:55.955Z,6.03
2022-09-22T19:19:58.280Z,6.43
2022-09-22T19:23:00.456Z,6.10
2022-09-22T19:26:02.673Z,6.30
2022-09-22T19:29:05.625Z,6.00
2022-09-22T19:32:07.815Z,6.18
2022-09-22T19:35:10.175Z,5.85
2022-09-22T19:38:12.461Z,6.00
2022-09-22T19:41:14.627Z,6.95
2022-09-22T19:44:17.633Z,6.00
2022-09-22T19:47:20.345Z,6.03
2022-09-22T19:50:22.800Z,6.63
2022-09-22T19:53:25.824Z,5.90
2022-09-22T19:56:28.005Z,6.75
2022-09-22T19:59:30.243Z,6.07
2022-09-22T20:02:33.120Z,11.50
2022-09-22T20:05:36.988Z,13.27
2022-09-22T20:08:39.371Z,15.02
2022-09-22T20:11:42.908Z,15.02
2022-09-22T20:14:45.845Z,14.33
2022-09-22T20:17:48.157Z,12.88
2022-09-22T20:20:53.967Z,14.38
2022-09-22T20:23:56.246Z,12.88
2022-09-22T20:26:58.468Z,12.90
2022-09-22T20:30:01.171Z,11.67
2022-09-22T20:33:03.472Z,11.30
2022-09-22T20:36:06.560Z,12.20
2022-09-22T20:39:10.028Z,11.18
2022-09-22T20:42:13.853Z,11.05
2022-09-22T20:45:16.457Z,11.03
2022-09-22T20:48:18.977Z,10.43
2022-09-22T20:51:22.237Z,10.73
2022-09-22T20:54:27.415Z,10.65
2022-09-22T20:57:32.807Z,10.15
2022-09-22T21:00:35.095Z,10.87
2022-09-22T21:03:38.193Z,10.00
2022-09-22T21:06:40.429Z,11.13
2022-09-22T21:10:01.380Z,10.10
2022-09-22T21:13:04.043Z,11.77
2022-09-22T21:16:06.345Z,11.03
2022-09-22T21:19:08.553Z,11.70
2022-09-22T21:22:10.893Z,11.60
2022-09-22T21:25:13.262Z,11.57
2022-09-22T21:28:15.435Z,11.32
2022-09-22T21:31:17.723Z,11.50
2022-09-22T21:34:20.002Z,13.60
2022-09-22T21:37:23.435Z,15.32
2022-09-22T21:40:25.645Z,14.57
2022-09-22T21:43:28.568Z,15.85
2022-09-22T21:46:30.934Z,14.10
2022-09-22T21:49:33.164Z,14.23
2022-09-22T21:52:37.050Z,14.65
2022-09-22T21:55:39.238Z,13.00
2022-09-22T21:58:42.793Z,12.40
2022-09-22T22:01:45.362Z,11.17
2022-09-22T22:04:47.611Z,10.98
2022-09-22T22:07:50.010Z,8.23
2022-09-22T22:11:06.881Z,10.27
2022-09-22T22:14:12.650Z,10.07
2022-09-22T22:17:14.810Z,10.33
2022-09-22T22:20:17.010Z,11.07
2022-09-22T22:23:19.473Z,10.82
2022-09-22T22:26:25.655Z,12.80
2022-09-22T22:29:31.640Z,15.00
2022-09-22T22:32:34.125Z,13.03
2022-09-22T22:35:36.278Z,10.90
2022-09-22T22:38:39.373Z,12.60
2022-09-22T22:41:41.545Z,12.63
2022-09-22T22:44:43.676Z,11.02
2022-09-22T22:47:46.086Z,10.30
2022-09-22T22:50:48.313Z,10.18
2022-09-22T22:53:51.088Z,10.15
2022-09-22T22:56:53.259Z,9.88
2022-09-22T22:59:57.175Z,11.13
2022-09-22T23:02:59.757Z,9.53
2022-09-22T23:06:02.412Z,8.70
2022-09-22T23:09:05.467Z,9.80
2022-09-22T23:12:10.884Z,9.73
2022-09-22T23:15:13.659Z,8.63
2022-09-22T23:18:20.667Z,9.57
2022-09-22T23:21:23.423Z,11.43
2022-09-22T23:24:25.594Z,10.07
2022-09-22T23:27:28.450Z,9.98
2022-09-22T23:30:33.056Z,9.10
2022-09-22T23:33:39.624Z,8.80
2022-09-22T23:36:41.912Z,8.43
2022-09-22T23:39:44.051Z,8.75
2022-09-22T23:42:47.941Z,8.50
2022-09-22T23:45:50.884Z,10.88
2022-09-22T23:48:53.162Z,10.00
2022-09-22T23:51:55.309Z,9.52
2022-09-22T23:54:57.657Z,9.45
2022-09-22T23:57:59.875Z,9.55
